Malmo — SMYL — position and weather

sailwx.info

Track history (hours):
 
Tides and Currents Weather Stations Pressure Air Temp Water Temp Dewpoint Dewpoint Depression Visibility Wind Speed Wind Dir Waves Ship Positions

Malmo

Last reported at 2019-Sep-17 17:00 UTC. Time now 2019-Sep-17 17:03 UTC.
Position N 63°15' E 008°04'.

Length 37 m; draft 3.5 m.

Type: Cargo ship. MMSI: 265511830.

Date/timePositionNaut miles runAvg speedWind from/ knotsBaromVisibWave heightAir tempDewpointWater temp
2019-Sep-17 17:00N 63°15' E 008°04'5 9.3
2019-Sep-17 16:30N 63°18' E 008°13'5 9.3
2019-Sep-17 16:00N 63°21' E 008°21'5 9.5
2019-Sep-17 15:30N 63°23' E 008°29'5 9.2
2019-Sep-17 15:00N 63°25' E 008°38'5 9.1
2019-Sep-17 14:30N 63°27' E 008°48'5 9.2
2019-Sep-17 14:00N 63°29' E 008°58'5 9.2
2019-Sep-17 13:30N 63°31' E 009°07'5 8.9
2019-Sep-17 13:00N 63°33' E 009°15'5 9.5
2019-Sep-17 12:30N 63°38' E 009°16'510.1
2019-Sep-17 12:00N 63°43' E 009°14'5 9.9
2019-Sep-17 11:30N 63°47' E 009°13'5 9.0
2019-Sep-17 11:00N 63°51' E 009°19'4 8.7
2019-Sep-17 10:31N 63°54' E 009°25'4 8.7
2019-Sep-17 10:00N 63°58' E 009°30'4 8.7
2019-Sep-17 09:29N 64°02' E 009°36'4 8.9
2019-Sep-17 09:00N 64°05' E 009°41'4 8.8
2019-Sep-17 08:30N 64°09' E 009°46'4 8.7
2019-Sep-17 08:00N 64°14' E 009°48'4 8.5
2019-Sep-17 07:30N 64°17' E 009°54'4 8.5
2019-Sep-17 07:00N 64°20' E 010°01'4 8.4
2019-Sep-17 06:30N 64°23' E 010°07'5 9.1
2019-Sep-17 06:00N 64°26' E 010°15'5 9.2
2019-Sep-17 05:30N 64°30' E 010°22'5 9.2
2019-Sep-17 05:00N 64°33' E 010°30'4 8.7
2019-Sep-17 04:30N 64°36' E 010°37'5 8.9
2019-Sep-17 04:00N 64°39' E 010°44'5 9.2
2019-Sep-17 03:30N 64°42' E 010°52'5 9.5
2019-Sep-17 03:00N 64°45' E 011°00'5 9.6
2019-Sep-17 02:30N 64°49' E 011°08'4 9.0
2019-Sep-17 02:00N 64°52' E 011°16'5 8.9
2019-Sep-17 01:30N 64°55' E 011°23'4 8.6
2019-Sep-17 01:00N 64°58' E 011°32'4 8.7
2019-Sep-17 00:30N 65°01' E 011°39'4 8.4
2019-Sep-17 00:00N 65°04' E 011°45'4 8.3
2019-Sep-16 23:30N 65°08' E 011°50'5 9.1
2019-Sep-16 22:59N 65°12' E 011°53'4 8.9
2019-Sep-16 22:30N 65°16' E 011°57'4 8.8
2019-Sep-16 22:00N 65°20' E 012°01'5 9.2
2019-Sep-16 21:30N 65°24' E 012°07'4 7.6
2019-Sep-16 21:00N 65°27' E 012°11'3 5.4
2019-Sep-16 20:29N 65°30' E 012°12'4 9.2
2019-Sep-16 20:00N 65°35' E 012°13'4 8.8
2019-Sep-16 19:30N 65°39' E 012°14'4 8.6
2019-Sep-16 19:00N 65°43' E 012°17'4 9.0
2019-Sep-16 18:30N 65°47' E 012°20'5 9.1
2019-Sep-16 18:00N 65°52' E 012°23'4 8.6
2019-Sep-16 17:30N 65°56' E 012°24'4 8.7
2019-Sep-16 17:00N 65°60' E 012°30'5 9.4
2019-Sep-16 16:29N 66°03' E 012°38'5 9.4
2019-Sep-16 16:00N 66°07' E 012°45'5 9.2
2019-Sep-16 15:29N 66°11' E 012°50'4 9.0
2019-Sep-16 15:00N 66°15' E 012°54'4 8.8
2019-Sep-16 14:30N 66°20' E 012°57'4 8.6
2019-Sep-16 14:00N 66°24' E 012°59'4 8.3
2019-Sep-16 13:30N 66°28' E 012°59'4 7.8
2019-Sep-16 13:00N 66°32' E 012°58'4 7.7
2019-Sep-16 12:30N 66°34' E 013°05'4 8.1
2019-Sep-16 12:00N 66°38' E 013°06'5 8.8
2019-Sep-16 11:28N 66°43' E 013°10'4 8.8
2019-Sep-16 11:00N 66°46' E 013°13'4 8.7
2019-Sep-16 10:30N 66°50' E 013°17'4 8.7
2019-Sep-16 10:00N 66°54' E 013°25'4 7.8
2019-Sep-16 09:30N 66°57' E 013°29'4 8.2
2019-Sep-16 09:00N 66°58' E 013°39'4 9.1
2019-Sep-16 08:30N 67°01' E 013°47'4 9.0
2019-Sep-16 08:01N 67°05' E 013°55'5 8.8
2019-Sep-16 07:30N 67°08' E 014°02'4 8.5
2019-Sep-16 07:00N 67°12' E 014°08'5 9.1
2019-Sep-16 06:31N 67°15' E 014°16'4 8.8
2019-Sep-16 06:00N 67°19' E 014°23'4 9.0
2019-Sep-16 05:31N 67°23' E 014°28'4 8.2
2019-Sep-16 05:00N 67°27' E 014°30'4 8.0
2019-Sep-16 04:30N 67°30' E 014°26'4 8.2
2019-Sep-16 04:00N 67°34' E 014°22'4 8.6
2019-Sep-16 03:31N 67°38' E 014°20'4 8.2
2019-Sep-16 03:00N 67°43' E 014°18'4 8.3
2019-Sep-16 02:30N 67°47' E 014°21'5 9.2
2019-Sep-16 02:00N 67°50' E 014°28'4 8.8
2019-Sep-16 01:30N 67°54' E 014°35'4 8.6
2019-Sep-16 01:00N 67°57' E 014°43'4 8.5
2019-Sep-16 00:30N 67°60' E 014°52'4 8.5
2019-Sep-16 00:00N 68°03' E 015°00'4 8.5
2019-Sep-15 23:30N 68°05' E 015°09'4 8.4
2019-Sep-15 23:00N 68°08' E 015°18'4 8.9
2019-Sep-15 22:30N 68°11' E 015°27'4 8.7
2019-Sep-15 21:59N 68°13' E 015°37'5 9.4
2019-Sep-15 21:30N 68°16' E 015°47'5 9.2
2019-Sep-15 21:00N 68°19' E 015°55'5 9.2
2019-Sep-15 20:30N 68°23' E 016°01'5 9.2
2019-Sep-15 20:00N 68°28' E 016°06'5 9.5
2019-Sep-15 19:30N 68°32' E 016°12'5 9.6
2019-Sep-15 19:00N 68°34' E 016°24'4 8.3
2019-Sep-15 18:30N 68°36' E 016°33'5 9.2
2019-Sep-15 18:00N 68°40' E 016°39'5 9.1
2019-Sep-15 17:30N 68°44' E 016°45'5 9.2
2019-Sep-15 17:00N 68°48' E 016°51'5 9.0
2019-Sep-15 16:30N 68°52' E 016°57'4 9.0
2019-Sep-15 16:01N 68°56' E 017°04'5 9.1
2019-Sep-15 15:31N 68°59' E 017°13'5 9.5
2019-Sep-15 15:00N 69°03' E 017°20'4 9.0
2019-Sep-15 14:30N 69°06' E 017°29'5 9.7
2019-Sep-15 14:00N 69°08' E 017°42'5 9.8
2019-Sep-15 13:30N 69°10' E 017°54'3 6.6
2019-Sep-15 13:01N 69°13' E 017°58'4 8.0
2019-Sep-15 12:30N 69°17' E 017°58'4 8.5
2019-Sep-15 12:00N 69°21' E 018°04'4 8.2
2019-Sep-15 11:30N 69°25' E 018°07'4 8.4
2019-Sep-15 11:01N 69°29' E 018°08'5 9.0
2019-Sep-15 10:30N 69°31' E 018°20'4 8.5
2019-Sep-15 10:00N 69°32' E 018°31'4 8.0
2019-Sep-15 09:29N 69°33' E 018°42'3 5.3
2019-Sep-15 09:00N 69°34' E 018°49'4 8.5
2019-Sep-15 08:30N 69°38' E 018°56'2 3.2
2019-Sep-15 08:00N 69°39' E 018°58'0 0.0
2019-Sep-15 07:30N 69°39' E 018°58'1 1.4
2019-Sep-15 07:00N 69°39' E 018°57'0 0.0
2019-Sep-15 06:29N 69°39' E 018°57'0 0.0
2019-Sep-15 05:58N 69°39' E 018°57'0 0.0
2019-Sep-15 05:28N 69°39' E 018°57'0 0.0
2019-Sep-15 04:58N 69°39' E 018°57'0 0.0
2019-Sep-15 04:28N 69°39' E 018°57'0 0.0
2019-Sep-15 03:58N 69°39' E 018°57'0 0.0
2019-Sep-15 03:28N 69°39' E 018°57'0 0.0
2019-Sep-15 02:58N 69°39' E 018°57'0 0.0
2019-Sep-15 02:28N 69°39' E 018°57'0 0.0
2019-Sep-15 01:58N 69°39' E 018°57'0 0.0
2019-Sep-15 01:28N 69°39' E 018°57'0 0.0
2019-Sep-15 00:58N 69°39' E 018°57'0 0.0
2019-Sep-15 00:28N 69°39' E 018°57'0 0.0
2019-Sep-14 23:58N 69°39' E 018°57'0 0.0
2019-Sep-14 23:28N 69°39' E 018°57'0 0.0
2019-Sep-14 22:58N 69°39' E 018°57'0 0.0
2019-Sep-14 22:28N 69°39' E 018°57'0 0.0
2019-Sep-14 21:58N 69°39' E 018°57'0 0.0
2019-Sep-14 21:28N 69°39' E 018°57'0 0.0
2019-Sep-14 20:58N 69°39' E 018°57'0 0.0
2019-Sep-14 20:28N 69°39' E 018°57'0 0.0
2019-Sep-14 19:58N 69°39' E 018°57'0 0.0
2019-Sep-14 19:28N 69°39' E 018°57'0 0.0
2019-Sep-14 18:58N 69°39' E 018°57'0 0.0
2019-Sep-14 18:28N 69°39' E 018°57'0 0.0
2019-Sep-14 17:58N 69°39' E 018°57'0 0.0
2019-Sep-14 17:28N 69°39' E 018°57'0 0.0
2019-Sep-14 16:58N 69°39' E 018°57'0 0.0
2019-Sep-14 16:28N 69°39' E 018°57'0 0.0
2019-Sep-14 15:58N 69°39' E 018°57'0 0.0
2019-Sep-14 15:29N 69°39' E 018°57'0 0.0
2019-Sep-14 14:58N 69°39' E 018°57'0 0.0
2019-Sep-14 14:29N 69°39' E 018°57'0 0.0
2019-Sep-14 13:58N 69°39' E 018°57'0 0.0
2019-Sep-14 13:28N 69°39' E 018°57'0 0.0
2019-Sep-14 12:58N 69°39' E 018°57'0 0.0
2019-Sep-14 12:28N 69°39' E 018°57'0 0.0
2019-Sep-14 11:58N 69°39' E 018°57'0 0.0
2019-Sep-14 11:28N 69°39' E 018°57'0 0.0
2019-Sep-14 10:58N 69°39' E 018°57'0 0.0
2019-Sep-14 10:28N 69°39' E 018°57'0 0.0
2019-Sep-14 09:58N 69°39' E 018°57'0 0.0
2019-Sep-14 09:28N 69°39' E 018°57'0 0.0
2019-Sep-14 08:58N 69°39' E 018°57'0 0.0
2019-Sep-14 08:28N 69°39' E 018°57'0 0.0
2019-Sep-14 07:58N 69°39' E 018°57'0 0.0
2019-Sep-14 07:29N 69°39' E 018°57'0 0.0
2019-Sep-14 06:58N 69°39' E 018°57'0 0.0
2019-Sep-14 06:28N 69°39' E 018°57'0 0.0
2019-Sep-14 05:59N 69°39' E 018°57'0 0.0
2019-Sep-14 05:29N 69°39' E 018°57'0 0.0
2019-Sep-14 04:59N 69°39' E 018°57'0 0.0
2019-Sep-14 04:28N 69°39' E 018°57'0 0.0
2019-Sep-14 03:58N 69°39' E 018°57'0 0.0
2019-Sep-14 03:28N 69°39' E 018°57'0 0.0
2019-Sep-14 02:58N 69°39' E 018°57'0 0.0
2019-Sep-14 02:28N 69°39' E 018°57'0 0.0
2019-Sep-14 01:58N 69°39' E 018°57'0 0.0
2019-Sep-14 01:28N 69°39' E 018°57'0 0.0
2019-Sep-14 00:58N 69°39' E 018°57'0 0.0
2019-Sep-14 00:28N 69°39' E 018°57'0 0.0
2019-Sep-13 23:58N 69°39' E 018°57'0 0.0
2019-Sep-13 23:28N 69°39' E 018°57'0 0.0
2019-Sep-13 22:58N 69°39' E 018°57'0 0.0
2019-Sep-13 22:28N 69°39' E 018°57'0 0.0
2019-Sep-13 21:58N 69°39' E 018°57'0 0.0
2019-Sep-13 21:29N 69°39' E 018°57'0 0.0
2019-Sep-13 20:58N 69°39' E 018°57'0 0.0
2019-Sep-13 20:28N 69°39' E 018°57'0 0.0
2019-Sep-13 19:58N 69°39' E 018°57'0 0.0
2019-Sep-13 19:28N 69°39' E 018°57'0 0.0
2019-Sep-13 18:58N 69°39' E 018°57'0 0.6
2019-Sep-13 18:30N 69°39' E 018°58'3 5.3
2019-Sep-13 18:00N 69°41' E 019°01'3 6.0
2019-Sep-13 17:30N 69°44' E 019°04'3 5.3
2019-Sep-13 17:00N 69°46' E 019°09'3 5.8
2019-Sep-13 16:30N 69°47' E 019°16'3 5.7
2019-Sep-13 16:00N 69°48' E 019°24'3 5.2
2019-Sep-13 15:30N 69°49' E 019°31'3 5.8
2019-Sep-13 15:00N 69°50' E 019°39'3 6.3
2019-Sep-13 14:30N 69°52' E 019°47'4 8.2
2019-Sep-13 14:00N 69°55' E 019°55'4 7.8
2019-Sep-13 13:30N 69°57' E 020°04'4 7.6
2019-Sep-13 13:00N 69°59' E 020°13'3 6.8
2019-Sep-13 12:29N 70°00' E 020°23'3 7.2
2019-Sep-13 12:00N 70°01' E 020°33'4 7.4
2019-Sep-13 11:30N 70°02' E 020°43'3 6.7
2019-Sep-13 11:00N 70°03' E 020°52'3 6.6
2019-Sep-13 10:30N 70°04' E 021°02'3 6.5
2019-Sep-13 10:00N 70°01' E 021°00'1 2.4
2019-Sep-13 09:30N 70°00' E 020°57'0 0.3
2019-Sep-13 08:59N 69°60' E 020°57'0 0.4
2019-Sep-13 08:30N 70°00' E 020°58'3 5.4
2019-Sep-13 08:00N 70°02' E 021°04'3 6.6
2019-Sep-13 07:30N 70°01' E 021°14'3 6.7
2019-Sep-13 07:00N 70°02' E 021°23'3 6.1
2019-Sep-13 06:30N 70°01' E 021°31'4 7.2
2019-Sep-13 06:00N 69°59' E 021°40'3 7.0
2019-Sep-13 05:30N 69°59' E 021°50'5 3.1
2019-Sep-13 03:44N 69°56' E 021°37'2 7.4
2019-Sep-13 03:30N 69°58' E 021°36'4 7.0
2019-Sep-13 03:00N 70°01' E 021°31'7 6.9
2019-Sep-13 02:00N 70°01' E 021°11'4 7.1
2019-Sep-13 01:30N 70°04' E 021°03'3 5.4
2019-Sep-13 01:00N 70°04' E 020°55'3 7.0
2019-Sep-13 00:30N 70°03' E 020°46'4 8.0
2019-Sep-13 00:00N 70°01' E 020°35'4 7.4
2019-Sep-12 23:30N 70°01' E 020°24'3 6.9
2019-Sep-12 23:00N 70°04' E 020°18'4 7.6
2019-Sep-12 22:30N 70°08' E 020°15'4 8.0
2019-Sep-12 22:00N 70°11' E 020°11'5 9.2
2019-Sep-12 21:30N 70°16' E 020°07'5 9.6
2019-Sep-12 20:59N 70°21' E 020°05'4 8.6
2019-Sep-12 20:30N 70°25' E 020°04'5 9.0
2019-Sep-12 20:00N 70°29' E 019°60'4 8.0
2019-Sep-12 19:30N 70°33' E 019°57'4 8.1
2019-Sep-12 19:00N 70°37' E 020°00'4 8.4
2019-Sep-12 18:30N 70°41' E 020°03'4 8.9
2019-Sep-12 18:00N 70°45' E 020°08'5 9.1
2019-Sep-12 17:30N 70°50' E 020°12'5 9.2
2019-Sep-12 17:00N 70°54' E 020°17'3 6.3
2019-Sep-12 16:30N 70°57' E 020°18'4 8.7
2019-Sep-12 16:00N 71°02' E 020°19'5 9.2
2019-Sep-12 15:30N 71°06' E 020°21'5 9.1
2019-Sep-12 15:00N 71°11' E 020°22'5 9.2
2019-Sep-12 14:29N 71°15' E 020°23'4 9.2
2019-Sep-12 14:00N 71°20' E 020°22'5 9.2
2019-Sep-12 13:30N 71°24' E 020°21'5 8.9
2019-Sep-12 13:00N 71°29' E 020°20'4 8.8
2019-Sep-12 12:30N 71°33' E 020°19'6 8.9
2019-Sep-12 11:50N 71°39' E 020°18'146 8.7
2019-Sep-11 18:58N 74°04' E 019°11'6 8.8
2019-Sep-11 18:19N 74°09' E 019°09'3 8.9
2019-Sep-11 17:59N 74°12' E 019°08'4 8.8
2019-Sep-11 17:29N 74°17' E 019°07'4 7.4
2019-Sep-11 16:58N 74°21' E 019°08'1 2.8
2019-Sep-11 16:30N 74°22' E 019°10'0 0.2
2019-Sep-11 16:00N 74°22' E 019°10'0 0.0
2019-Sep-11 15:30N 74°22' E 019°10'0 0.0
2019-Sep-11 15:00N 74°22' E 019°10'0 0.0
2019-Sep-11 14:30N 74°22' E 019°10'0 0.0
2019-Sep-11 14:00N 74°22' E 019°10'0 0.0
2019-Sep-11 13:30N 74°22' E 019°10'0 0.0
2019-Sep-11 13:00N 74°22' E 019°10'0 0.0
2019-Sep-11 12:30N 74°22' E 019°10'0 0.0
2019-Sep-11 12:00N 74°22' E 019°10'0 0.0
2019-Sep-11 11:30N 74°22' E 019°10'0 0.0
2019-Sep-11 11:00N 74°22' E 019°10'0 0.0
2019-Sep-11 10:30N 74°22' E 019°10'0 0.0
2019-Sep-11 09:57N 74°22' E 019°10'0 0.0
2019-Sep-11 09:15N 74°22' E 019°10'0 0.0
2019-Sep-11 08:48N 74°22' E 019°10'0 0.0
2019-Sep-11 08:30N 74°22' E 019°10'0 0.6
2019-Sep-11 08:00N 74°22' E 019°10'3 6.1
2019-Sep-11 07:30N 74°24' E 019°17'4 8.3
2019-Sep-11 07:00N 74°27' E 019°26'5 9.0
2019-Sep-11 06:30N 74°30' E 019°38'5 9.4
2019-Sep-11 06:00N 74°34' E 019°50'5 9.6
2019-Sep-11 05:30N 74°37' E 020°03'5 9.8
2019-Sep-11 05:00N 74°41' E 020°15'5 9.8
2019-Sep-11 04:30N 74°44' E 020°28'  
Track history (hours):
 
Tides and Currents Weather Stations Pressure Air Temp Water Temp Dewpoint Dewpoint Depression Visibility Wind Speed Wind Dir Waves Ship Positions

Malmo

Last reported at 2019-Sep-17 17:00 UTC. Time now 2019-Sep-17 17:03 UTC.
Position N 63°15' E 008°04'.

Length 37 m; draft 3.5 m.

Type: Cargo ship. MMSI: 265511830.

Date/timePositionNaut miles runAvg speedWind from/ knotsBaromVisibWave heightAir tempDewpointWater temp
2019-Sep-17 17:00N 63°15' E 008°04'5 9.3
2019-Sep-17 16:30N 63°18' E 008°13'5 9.3
2019-Sep-17 16:00N 63°21' E 008°21'5 9.5
2019-Sep-17 15:30N 63°23' E 008°29'5 9.2
2019-Sep-17 15:00N 63°25' E 008°38'5 9.1
2019-Sep-17 14:30N 63°27' E 008°48'5 9.2
2019-Sep-17 14:00N 63°29' E 008°58'5 9.2
2019-Sep-17 13:30N 63°31' E 009°07'5 8.9
2019-Sep-17 13:00N 63°33' E 009°15'5 9.5
2019-Sep-17 12:30N 63°38' E 009°16'510.1
2019-Sep-17 12:00N 63°43' E 009°14'5 9.9
2019-Sep-17 11:30N 63°47' E 009°13'5 9.0
2019-Sep-17 11:00N 63°51' E 009°19'4 8.7
2019-Sep-17 10:31N 63°54' E 009°25'4 8.7
2019-Sep-17 10:00N 63°58' E 009°30'4 8.7
2019-Sep-17 09:29N 64°02' E 009°36'4 8.9
2019-Sep-17 09:00N 64°05' E 009°41'4 8.8
2019-Sep-17 08:30N 64°09' E 009°46'4 8.7
2019-Sep-17 08:00N 64°14' E 009°48'4 8.5
2019-Sep-17 07:30N 64°17' E 009°54'4 8.5
2019-Sep-17 07:00N 64°20' E 010°01'4 8.4
2019-Sep-17 06:30N 64°23' E 010°07'5 9.1
2019-Sep-17 06:00N 64°26' E 010°15'5 9.2
2019-Sep-17 05:30N 64°30' E 010°22'5 9.2
2019-Sep-17 05:00N 64°33' E 010°30'4 8.7
2019-Sep-17 04:30N 64°36' E 010°37'5 8.9
2019-Sep-17 04:00N 64°39' E 010°44'5 9.2
2019-Sep-17 03:30N 64°42' E 010°52'5 9.5
2019-Sep-17 03:00N 64°45' E 011°00'5 9.6
2019-Sep-17 02:30N 64°49' E 011°08'4 9.0
2019-Sep-17 02:00N 64°52' E 011°16'5 8.9
2019-Sep-17 01:30N 64°55' E 011°23'4 8.6
2019-Sep-17 01:00N 64°58' E 011°32'4 8.7
2019-Sep-17 00:30N 65°01' E 011°39'4 8.4
2019-Sep-17 00:00N 65°04' E 011°45'4 8.3
2019-Sep-16 23:30N 65°08' E 011°50'5 9.1
2019-Sep-16 22:59N 65°12' E 011°53'4 8.9
2019-Sep-16 22:30N 65°16' E 011°57'4 8.8
2019-Sep-16 22:00N 65°20' E 012°01'5 9.2
2019-Sep-16 21:30N 65°24' E 012°07'4 7.6
2019-Sep-16 21:00N 65°27' E 012°11'3 5.4
2019-Sep-16 20:29N 65°30' E 012°12'4 9.2
2019-Sep-16 20:00N 65°35' E 012°13'4 8.8
2019-Sep-16 19:30N 65°39' E 012°14'4 8.6
2019-Sep-16 19:00N 65°43' E 012°17'4 9.0
2019-Sep-16 18:30N 65°47' E 012°20'5 9.1
2019-Sep-16 18:00N 65°52' E 012°23'4 8.6
2019-Sep-16 17:30N 65°56' E 012°24'4 8.7
2019-Sep-16 17:00N 65°60' E 012°30'5 9.4
2019-Sep-16 16:29N 66°03' E 012°38'5 9.4
2019-Sep-16 16:00N 66°07' E 012°45'5 9.2
2019-Sep-16 15:29N 66°11' E 012°50'4 9.0
2019-Sep-16 15:00N 66°15' E 012°54'4 8.8
2019-Sep-16 14:30N 66°20' E 012°57'4 8.6
2019-Sep-16 14:00N 66°24' E 012°59'4 8.3
2019-Sep-16 13:30N 66°28' E 012°59'4 7.8
2019-Sep-16 13:00N 66°32' E 012°58'4 7.7
2019-Sep-16 12:30N 66°34' E 013°05'4 8.1
2019-Sep-16 12:00N 66°38' E 013°06'5 8.8
2019-Sep-16 11:28N 66°43' E 013°10'4 8.8
2019-Sep-16 11:00N 66°46' E 013°13'4 8.7
2019-Sep-16 10:30N 66°50' E 013°17'4 8.7
2019-Sep-16 10:00N 66°54' E 013°25'4 7.8
2019-Sep-16 09:30N 66°57' E 013°29'4 8.2
2019-Sep-16 09:00N 66°58' E 013°39'4 9.1
2019-Sep-16 08:30N 67°01' E 013°47'4 9.0
2019-Sep-16 08:01N 67°05' E 013°55'5 8.8
2019-Sep-16 07:30N 67°08' E 014°02'4 8.5
2019-Sep-16 07:00N 67°12' E 014°08'5 9.1
2019-Sep-16 06:31N 67°15' E 014°16'4 8.8
2019-Sep-16 06:00N 67°19' E 014°23'4 9.0
2019-Sep-16 05:31N 67°23' E 014°28'4 8.2
2019-Sep-16 05:00N 67°27' E 014°30'4 8.0
2019-Sep-16 04:30N 67°30' E 014°26'4 8.2
2019-Sep-16 04:00N 67°34' E 014°22'4 8.6
2019-Sep-16 03:31N 67°38' E 014°20'4 8.2
2019-Sep-16 03:00N 67°43' E 014°18'4 8.3
2019-Sep-16 02:30N 67°47' E 014°21'5 9.2
2019-Sep-16 02:00N 67°50' E 014°28'4 8.8
2019-Sep-16 01:30N 67°54' E 014°35'4 8.6
2019-Sep-16 01:00N 67°57' E 014°43'4 8.5
2019-Sep-16 00:30N 67°60' E 014°52'4 8.5
2019-Sep-16 00:00N 68°03' E 015°00'4 8.5
2019-Sep-15 23:30N 68°05' E 015°09'4 8.4
2019-Sep-15 23:00N 68°08' E 015°18'4 8.9
2019-Sep-15 22:30N 68°11' E 015°27'4 8.7
2019-Sep-15 21:59N 68°13' E 015°37'5 9.4
2019-Sep-15 21:30N 68°16' E 015°47'5 9.2
2019-Sep-15 21:00N 68°19' E 015°55'5 9.2
2019-Sep-15 20:30N 68°23' E 016°01'5 9.2
2019-Sep-15 20:00N 68°28' E 016°06'5 9.5
2019-Sep-15 19:30N 68°32' E 016°12'5 9.6
2019-Sep-15 19:00N 68°34' E 016°24'4 8.3
2019-Sep-15 18:30N 68°36' E 016°33'5 9.2
2019-Sep-15 18:00N 68°40' E 016°39'5 9.1
2019-Sep-15 17:30N 68°44' E 016°45'5 9.2
2019-Sep-15 17:00N 68°48' E 016°51'5 9.0
2019-Sep-15 16:30N 68°52' E 016°57'4 9.0
2019-Sep-15 16:01N 68°56' E 017°04'5 9.1
2019-Sep-15 15:31N 68°59' E 017°13'5 9.5
2019-Sep-15 15:00N 69°03' E 017°20'4 9.0
2019-Sep-15 14:30N 69°06' E 017°29'5 9.7
2019-Sep-15 14:00N 69°08' E 017°42'5 9.8
2019-Sep-15 13:30N 69°10' E 017°54'3 6.6
2019-Sep-15 13:01N 69°13' E 017°58'4 8.0
2019-Sep-15 12:30N 69°17' E 017°58'4 8.5
2019-Sep-15 12:00N 69°21' E 018°04'4 8.2
2019-Sep-15 11:30N 69°25' E 018°07'4 8.4
2019-Sep-15 11:01N 69°29' E 018°08'5 9.0
2019-Sep-15 10:30N 69°31' E 018°20'4 8.5
2019-Sep-15 10:00N 69°32' E 018°31'4 8.0
2019-Sep-15 09:29N 69°33' E 018°42'3 5.3
2019-Sep-15 09:00N 69°34' E 018°49'4 8.5
2019-Sep-15 08:30N 69°38' E 018°56'2 3.2
2019-Sep-15 08:00N 69°39' E 018°58'0 0.0
2019-Sep-15 07:30N 69°39' E 018°58'1 1.4
2019-Sep-15 07:00N 69°39' E 018°57'0 0.0
2019-Sep-15 06:29N 69°39' E 018°57'0 0.0
2019-Sep-15 05:58N 69°39' E 018°57'0 0.0
2019-Sep-15 05:28N 69°39' E 018°57'0 0.0
2019-Sep-15 04:58N 69°39' E 018°57'0 0.0
2019-Sep-15 04:28N 69°39' E 018°57'0 0.0
2019-Sep-15 03:58N 69°39' E 018°57'0 0.0
2019-Sep-15 03:28N 69°39' E 018°57'0 0.0
2019-Sep-15 02:58N 69°39' E 018°57'0 0.0
2019-Sep-15 02:28N 69°39' E 018°57'0 0.0
2019-Sep-15 01:58N 69°39' E 018°57'0 0.0
2019-Sep-15 01:28N 69°39' E 018°57'0 0.0
2019-Sep-15 00:58N 69°39' E 018°57'0 0.0
2019-Sep-15 00:28N 69°39' E 018°57'0 0.0
2019-Sep-14 23:58N 69°39' E 018°57'0 0.0
2019-Sep-14 23:28N 69°39' E 018°57'0 0.0
2019-Sep-14 22:58N 69°39' E 018°57'0 0.0
2019-Sep-14 22:28N 69°39' E 018°57'0 0.0
2019-Sep-14 21:58N 69°39' E 018°57'0 0.0
2019-Sep-14 21:28N 69°39' E 018°57'0 0.0
2019-Sep-14 20:58N 69°39' E 018°57'0 0.0
2019-Sep-14 20:28N 69°39' E 018°57'0 0.0
2019-Sep-14 19:58N 69°39' E 018°57'0 0.0
2019-Sep-14 19:28N 69°39' E 018°57'0 0.0
2019-Sep-14 18:58N 69°39' E 018°57'0 0.0
2019-Sep-14 18:28N 69°39' E 018°57'0 0.0
2019-Sep-14 17:58N 69°39' E 018°57'0 0.0
2019-Sep-14 17:28N 69°39' E 018°57'0 0.0
2019-Sep-14 16:58N 69°39' E 018°57'0 0.0
2019-Sep-14 16:28N 69°39' E 018°57'0 0.0
2019-Sep-14 15:58N 69°39' E 018°57'0 0.0
2019-Sep-14 15:29N 69°39' E 018°57'0 0.0
2019-Sep-14 14:58N 69°39' E 018°57'0 0.0
2019-Sep-14 14:29N 69°39' E 018°57'0 0.0
2019-Sep-14 13:58N 69°39' E 018°57'0 0.0
2019-Sep-14 13:28N 69°39' E 018°57'0 0.0
2019-Sep-14 12:58N 69°39' E 018°57'0 0.0
2019-Sep-14 12:28N 69°39' E 018°57'0 0.0
2019-Sep-14 11:58N 69°39' E 018°57'0 0.0
2019-Sep-14 11:28N 69°39' E 018°57'0 0.0
2019-Sep-14 10:58N 69°39' E 018°57'0 0.0
2019-Sep-14 10:28N 69°39' E 018°57'0 0.0
2019-Sep-14 09:58N 69°39' E 018°57'0 0.0
2019-Sep-14 09:28N 69°39' E 018°57'0 0.0
2019-Sep-14 08:58N 69°39' E 018°57'0 0.0
2019-Sep-14 08:28N 69°39' E 018°57'0 0.0
2019-Sep-14 07:58N 69°39' E 018°57'0 0.0
2019-Sep-14 07:29N 69°39' E 018°57'0 0.0
2019-Sep-14 06:58N 69°39' E 018°57'0 0.0
2019-Sep-14 06:28N 69°39' E 018°57'0 0.0
2019-Sep-14 05:59N 69°39' E 018°57'0 0.0
2019-Sep-14 05:29N 69°39' E 018°57'0 0.0
2019-Sep-14 04:59N 69°39' E 018°57'0 0.0
2019-Sep-14 04:28N 69°39' E 018°57'0 0.0
2019-Sep-14 03:58N 69°39' E 018°57'0 0.0
2019-Sep-14 03:28N 69°39' E 018°57'0 0.0
2019-Sep-14 02:58N 69°39' E 018°57'0 0.0
2019-Sep-14 02:28N 69°39' E 018°57'0 0.0
2019-Sep-14 01:58N 69°39' E 018°57'0 0.0
2019-Sep-14 01:28N 69°39' E 018°57'0 0.0
2019-Sep-14 00:58N 69°39' E 018°57'0 0.0
2019-Sep-14 00:28N 69°39' E 018°57'0 0.0
2019-Sep-13 23:58N 69°39' E 018°57'0 0.0
2019-Sep-13 23:28N 69°39' E 018°57'0 0.0
2019-Sep-13 22:58N 69°39' E 018°57'0 0.0
2019-Sep-13 22:28N 69°39' E 018°57'0 0.0
2019-Sep-13 21:58N 69°39' E 018°57'0 0.0
2019-Sep-13 21:29N 69°39' E 018°57'0 0.0
2019-Sep-13 20:58N 69°39' E 018°57'0 0.0
2019-Sep-13 20:28N 69°39' E 018°57'0 0.0
2019-Sep-13 19:58N 69°39' E 018°57'0 0.0
2019-Sep-13 19:28N 69°39' E 018°57'0 0.0
2019-Sep-13 18:58N 69°39' E 018°57'0 0.6
2019-Sep-13 18:30N 69°39' E 018°58'3 5.3
2019-Sep-13 18:00N 69°41' E 019°01'3 6.0
2019-Sep-13 17:30N 69°44' E 019°04'3 5.3
2019-Sep-13 17:00N 69°46' E 019°09'3 5.8
2019-Sep-13 16:30N 69°47' E 019°16'3 5.7
2019-Sep-13 16:00N 69°48' E 019°24'3 5.2
2019-Sep-13 15:30N 69°49' E 019°31'3 5.8
2019-Sep-13 15:00N 69°50' E 019°39'3 6.3
2019-Sep-13 14:30N 69°52' E 019°47'4 8.2
2019-Sep-13 14:00N 69°55' E 019°55'4 7.8
2019-Sep-13 13:30N 69°57' E 020°04'4 7.6
2019-Sep-13 13:00N 69°59' E 020°13'3 6.8
2019-Sep-13 12:29N 70°00' E 020°23'3 7.2
2019-Sep-13 12:00N 70°01' E 020°33'4 7.4
2019-Sep-13 11:30N 70°02' E 020°43'3 6.7
2019-Sep-13 11:00N 70°03' E 020°52'3 6.6
2019-Sep-13 10:30N 70°04' E 021°02'3 6.5
2019-Sep-13 10:00N 70°01' E 021°00'1 2.4
2019-Sep-13 09:30N 70°00' E 020°57'0 0.3
2019-Sep-13 08:59N 69°60' E 020°57'0 0.4
2019-Sep-13 08:30N 70°00' E 020°58'3 5.4
2019-Sep-13 08:00N 70°02' E 021°04'3 6.6
2019-Sep-13 07:30N 70°01' E 021°14'3 6.7
2019-Sep-13 07:00N 70°02' E 021°23'3 6.1
2019-Sep-13 06:30N 70°01' E 021°31'4 7.2
2019-Sep-13 06:00N 69°59' E 021°40'3 7.0
2019-Sep-13 05:30N 69°59' E 021°50'5 3.1
2019-Sep-13 03:44N 69°56' E 021°37'2 7.4
2019-Sep-13 03:30N 69°58' E 021°36'4 7.0
2019-Sep-13 03:00N 70°01' E 021°31'7 6.9
2019-Sep-13 02:00N 70°01' E 021°11'4 7.1
2019-Sep-13 01:30N 70°04' E 021°03'3 5.4
2019-Sep-13 01:00N 70°04' E 020°55'3 7.0
2019-Sep-13 00:30N 70°03' E 020°46'4 8.0
2019-Sep-13 00:00N 70°01' E 020°35'4 7.4
2019-Sep-12 23:30N 70°01' E 020°24'3 6.9
2019-Sep-12 23:00N 70°04' E 020°18'4 7.6
2019-Sep-12 22:30N 70°08' E 020°15'4 8.0
2019-Sep-12 22:00N 70°11' E 020°11'5 9.2
2019-Sep-12 21:30N 70°16' E 020°07'5 9.6
2019-Sep-12 20:59N 70°21' E 020°05'4 8.6
2019-Sep-12 20:30N 70°25' E 020°04'5 9.0
2019-Sep-12 20:00N 70°29' E 019°60'4 8.0
2019-Sep-12 19:30N 70°33' E 019°57'4 8.1
2019-Sep-12 19:00N 70°37' E 020°00'4 8.4
2019-Sep-12 18:30N 70°41' E 020°03'4 8.9
2019-Sep-12 18:00N 70°45' E 020°08'5 9.1
2019-Sep-12 17:30N 70°50' E 020°12'5 9.2
2019-Sep-12 17:00N 70°54' E 020°17'3 6.3
2019-Sep-12 16:30N 70°57' E 020°18'4 8.7
2019-Sep-12 16:00N 71°02' E 020°19'5 9.2
2019-Sep-12 15:30N 71°06' E 020°21'5 9.1
2019-Sep-12 15:00N 71°11' E 020°22'5 9.2
2019-Sep-12 14:29N 71°15' E 020°23'4 9.2
2019-Sep-12 14:00N 71°20' E 020°22'5 9.2
2019-Sep-12 13:30N 71°24' E 020°21'5 8.9
2019-Sep-12 13:00N 71°29' E 020°20'4 8.8
2019-Sep-12 12:30N 71°33' E 020°19'6 8.9
2019-Sep-12 11:50N 71°39' E 020°18'146 8.7
2019-Sep-11 18:58N 74°04' E 019°11'6 8.8
2019-Sep-11 18:19N 74°09' E 019°09'3 8.9
2019-Sep-11 17:59N 74°12' E 019°08'4 8.8
2019-Sep-11 17:29N 74°17' E 019°07'4 7.4
2019-Sep-11 16:58N 74°21' E 019°08'1 2.8
2019-Sep-11 16:30N 74°22' E 019°10'0 0.2
2019-Sep-11 16:00N 74°22' E 019°10'0 0.0
2019-Sep-11 15:30N 74°22' E 019°10'0 0.0
2019-Sep-11 15:00N 74°22' E 019°10'0 0.0
2019-Sep-11 14:30N 74°22' E 019°10'0 0.0
2019-Sep-11 14:00N 74°22' E 019°10'0 0.0
2019-Sep-11 13:30N 74°22' E 019°10'0 0.0
2019-Sep-11 13:00N 74°22' E 019°10'0 0.0
2019-Sep-11 12:30N 74°22' E 019°10'0 0.0
2019-Sep-11 12:00N 74°22' E 019°10'0 0.0
2019-Sep-11 11:30N 74°22' E 019°10'0 0.0
2019-Sep-11 11:00N 74°22' E 019°10'0 0.0
2019-Sep-11 10:30N 74°22' E 019°10'0 0.0
2019-Sep-11 09:57N 74°22' E 019°10'0 0.0
2019-Sep-11 09:15N 74°22' E 019°10'0 0.0
2019-Sep-11 08:48N 74°22' E 019°10'0 0.0
2019-Sep-11 08:30N 74°22' E 019°10'0 0.6
2019-Sep-11 08:00N 74°22' E 019°10'3 6.1
2019-Sep-11 07:30N 74°24' E 019°17'4 8.3
2019-Sep-11 07:00N 74°27' E 019°26'5 9.0
2019-Sep-11 06:30N 74°30' E 019°38'5 9.4
2019-Sep-11 06:00N 74°34' E 019°50'5 9.6
2019-Sep-11 05:30N 74°37' E 020°03'5 9.8
2019-Sep-11 05:00N 74°41' E 020°15'5 9.8
2019-Sep-11 04:30N 74°44' E 020°28'  

Dump ship's entire track history